Time;durP1;ratioP1;P1;durP2;ratioP2;P2;SDS_P1;SDS_P2;PMS_P1;PMS_P2;Temp;Humidity;BMP_temperature;BMP_pressure;BME280_temperature;BME280_humidity;BME280_pressure;Samples;Min_cycle;Max_cycle;Signal;HPM_P1;HPM_P2
2023/04/24 00:01:39;;;;;;;3.80;2.20;;;9.90;99.90;;;;;;5073728;28;20408;-84
2023/04/24 00:04:06;;;;;;;2.88;2.15;;;9.90;99.90;;;;;;5055889;28;20056;-85
2023/04/24 00:06:33;;;;;;;3.08;2.30;;;9.80;99.90;;;;;;5072284;28;20056;-84
2023/04/24 00:09:03;;;;;;;2.65;2.38;;;9.80;99.90;;;;;;5073362;28;20107;-84
2023/04/24 00:11:29;;;;;;;3.03;2.38;;;9.80;99.90;;;;;;5073092;28;20084;-86
2023/04/24 00:13:55;;;;;;;3.05;2.33;;;9.80;99.90;;;;;;5072442;28;20136;-84
2023/04/24 00:16:21;;;;;;;3.58;2.60;;;10.10;99.90;;;;;;5073407;28;20037;-84
2023/04/24 00:18:47;;;;;;;4.65;2.70;;;9.70;99.90;;;;;;5074606;28;20514;-85
2023/04/24 00:21:17;;;;;;;2.80;2.30;;;10.10;99.90;;;;;;5076317;28;20123;-84
2023/04/24 00:23:43;;;;;;;3.42;2.80;;;9.70;99.90;;;;;;5077145;28;20051;-85
2023/04/24 00:26:09;;;;;;;3.37;2.73;;;10.00;99.90;;;;;;5076377;28;20130;-87
2023/04/24 00:28:35;;;;;;;3.10;2.67;;;9.60;99.90;;;;;;5076339;28;20465;-84
2023/04/24 00:31:00;;;;;;;3.25;2.40;;;9.70;99.90;;;;;;5077291;28;20040;-86
2023/04/24 00:33:26;;;;;;;2.20;1.90;;;10.30;99.90;;;;;;5076005;28;20052;-85
2023/04/24 00:35:52;;;;;;;2.55;2.20;;;9.70;99.90;;;;;;5075950;28;20052;-86
2023/04/24 00:38:18;;;;;;;2.47;1.98;;;10.30;99.90;;;;;;5077068;28;20609;-86
2023/04/24 00:40:43;;;;;;;3.67;1.60;;;9.90;99.90;;;;;;5076661;28;20044;-86
2023/04/24 00:43:09;;;;;;;2.30;1.90;;;9.60;99.90;;;;;;5075480;28;20392;-84
2023/04/24 00:45:35;;;;;;;2.70;1.63;;;9.60;99.90;;;;;;5059299;28;20044;-86
2023/04/24 00:48:02;;;;;;;1.80;1.50;;;9.90;99.90;;;;;;5075882;28;20610;-86
2023/04/24 00:50:28;;;;;;;2.20;1.60;;;9.50;99.90;;;;;;5076989;28;20095;-84
2023/04/24 00:52:54;;;;;;;2.53;1.67;;;9.50;99.90;;;;;;5075525;28;20388;-85
2023/04/24 00:55:20;;;;;;;1.90;1.50;;;9.50;99.90;;;;;;5058959;28;20040;-86
2023/04/24 00:57:47;;;;;;;2.95;1.60;;;9.50;99.90;;;;;;5075697;28;20040;-85
2023/04/24 01:00:13;;;;;;;;;;;9.50;99.90;;;;;;5075794;28;20044;-85
2023/04/24 01:02:44;;;;;;;2.08;1.70;;;9.40;99.90;;;;;;5058943;28;19959;-84
2023/04/24 01:05:14;;;;;;;2.45;1.90;;;10.30;99.90;;;;;;5058599;28;20056;-86
2023/04/24 01:07:45;;;;;;;2.03;1.67;;;9.40;99.90;;;;;;5058668;28;20102;-84
2023/04/24 01:10:12;;;;;;;2.53;1.95;;;9.70;99.90;;;;;;5076502;28;20040;-84
2023/04/24 01:12:38;;;;;;;2.55;1.92;;;9.50;99.90;;;;;;5076439;28;20059;-86
2023/04/24 01:15:05;;;;;;;2.42;2.08;;;9.80;99.90;;;;;;5075297;28;20044;-84
2023/04/24 01:17:31;;;;;;;2.85;2.30;;;9.40;99.90;;;;;;5058635;28;20090;-85
2023/04/24 01:19:57;;;;;;;3.15;2.20;;;9.40;99.90;;;;;;5058652;28;20078;-84
2023/04/24 01:22:22;;;;;;;3.92;2.35;;;9.40;99.90;;;;;;5058897;28;20044;-86
2023/04/24 01:24:48;;;;;;;3.25;2.20;;;9.20;99.90;;;;;;5058747;28;20136;-84
2023/04/24 01:27:14;;;;;;;2.83;2.10;;;9.30;99.90;;;;;;5075127;28;20083;-84
2023/04/24 01:29:40;;;;;;;3.33;2.65;;;9.20;99.90;;;;;;5057826;28;20051;-83
2023/04/24 01:32:07;;;;;;;3.13;2.50;;;9.40;99.90;;;;;;5076250;28;20045;-84
2023/04/24 01:34:33;;;;;;;3.60;2.67;;;9.90;99.90;;;;;;5074763;28;20052;-84
2023/04/24 01:37:00;;;;;;;3.33;2.70;;;9.40;99.90;;;;;;5074813;28;20041;-84
2023/04/24 01:39:28;;;;;;;3.90;2.90;;;9.30;99.90;;;;;;5074865;28;20048;-84
2023/04/24 01:41:54;;;;;;;4.47;3.10;;;10.00;99.90;;;;;;5074930;28;20507;-84
2023/04/24 01:44:20;;;;;;;3.70;2.88;;;10.40;99.90;;;;;;5058090;28;20048;-85
2023/04/24 01:46:46;;;;;;;5.07;3.50;;;9.30;99.90;;;;;;5058322;28;20492;-84
2023/04/24 01:49:12;;;;;;;4.75;3.72;;;9.30;99.90;;;;;;5074717;28;20330;-85
2023/04/24 01:51:38;;;;;;;5.75;4.28;;;9.30;99.90;;;;;;5057930;28;20124;-83
2023/04/24 01:54:03;;;;;;;8.20;4.35;;;9.20;99.90;;;;;;5075559;28;20091;-83
2023/04/24 01:56:30;;;;;;;6.72;4.70;;;9.20;99.90;;;;;;5074319;28;20093;-84
2023/04/24 01:58:57;;;;;;;7.43;5.18;;;9.40;99.90;;;;;;5057412;28;20063;-83
2023/04/24 02:01:24;;;;;;;6.78;5.47;;;9.10;99.90;;;;;;5074705;28;20141;-84
2023/04/24 02:03:50;;;;;;;10.88;5.40;;;9.20;99.90;;;;;;5075325;28;20044;-84
2023/04/24 02:06:15;;;;;;;8.10;5.47;;;9.30;99.90;;;;;;5074404;28;20043;-84
2023/04/24 02:08:41;;;;;;;7.53;5.40;;;9.30;99.90;;;;;;5075318;28;20041;-84
2023/04/24 02:11:09;;;;;;;9.40;5.40;;;9.70;99.90;;;;;;5057471;28;20048;-84
2023/04/24 02:13:35;;;;;;;7.22;4.97;;;9.00;99.90;;;;;;5074075;28;20050;-85
2023/04/24 02:16:00;;;;;;;6.57;4.30;;;9.60;99.90;;;;;;5074048;28;20044;-84
2023/04/24 02:18:26;;;;;;;6.80;4.68;;;9.30;99.90;;;;;;5075215;28;20055;-83
2023/04/24 02:20:52;;;;;;;5.13;4.30;;;9.30;99.90;;;;;;5073827;28;20044;-84
2023/04/24 02:23:17;;;;;;;7.22;4.95;;;9.30;99.90;;;;;;5073608;28;20588;-84
2023/04/24 02:25:43;;;;;;;6.38;4.65;;;9.30;99.90;;;;;;5075021;28;20041;-84
2023/04/24 02:28:08;;;;;;;5.75;4.35;;;9.40;99.90;;;;;;5057477;28;20476;-84
2023/04/24 02:30:34;;;;;;;8.25;4.03;;;9.30;99.90;;;;;;5073831;28;20041;-85
2023/04/24 02:33:00;;;;;;;5.55;3.53;;;9.30;99.90;;;;;;5074678;28;20127;-86
2023/04/24 02:35:25;;;;;;;6.05;4.38;;;9.60;99.90;;;;;;5074521;28;20040;-86
2023/04/24 02:37:51;;;;;;;6.97;4.25;;;9.40;99.90;;;;;;5057166;28;20048;-85
2023/04/24 02:40:16;;;;;;;6.55;4.05;;;9.40;99.90;;;;;;5075062;28;20048;-86
2023/04/24 02:42:42;;;;;;;5.82;4.55;;;9.40;99.90;;;;;;5072716;28;20438;-85
2023/04/24 02:45:08;;;;;;;5.72;4.05;;;9.40;99.90;;;;;;5057100;28;20444;-85
2023/04/24 02:47:33;;;;;;;7.00;4.35;;;9.40;99.90;;;;;;5073601;28;20066;-84
2023/04/24 02:49:59;;;;;;;4.68;3.50;;;9.30;99.90;;;;;;5074661;28;20139;-84
2023/04/24 02:52:25;;;;;;;4.50;3.45;;;9.40;99.90;;;;;;5073568;28;20040;-83
2023/04/24 02:54:50;;;;;;;9.77;3.80;;;9.30;99.90;;;;;;5073347;28;20572;-84
2023/04/24 02:57:16;;;;;;;4.55;3.58;;;9.30;99.90;;;;;;5074582;28;20044;-84
2023/04/24 02:59:41;;;;;;;4.68;3.28;;;10.30;99.90;;;;;;5056803;28;20432;-85
2023/04/24 03:02:07;;;;;;;6.13;3.90;;;9.50;99.90;;;;;;5073117;28;20040;-85
2023/04/24 03:04:33;;;;;;;4.32;3.22;;;9.40;99.90;;;;;;5072974;28;20044;-84
2023/04/24 03:06:58;;;;;;;4.47;3.30;;;9.40;99.90;;;;;;5072853;28;20095;-85
2023/04/24 03:09:24;;;;;;;4.20;3.50;;;9.30;99.90;;;;;;5074265;28;20087;-84
2023/04/24 03:11:50;;;;;;;4.68;3.58;;;9.30;99.90;;;;;;5074116;28;20051;-85
2023/04/24 03:14:16;;;;;;;3.65;3.00;;;9.60;99.90;;;;;;5056256;28;20118;-84
2023/04/24 03:16:42;;;;;;;6.03;3.63;;;9.90;99.90;;;;;;5074352;28;20041;-85
2023/04/24 03:19:08;;;;;;;4.78;3.42;;;8.70;99.90;;;;;;5074019;28;20040;-85
2023/04/24 03:21:35;;;;;;;4.32;3.17;;;9.10;99.90;;;;;;5056866;28;20450;-85
2023/04/24 03:24:01;;;;;;;4.20;3.47;;;9.30;99.90;;;;;;5074548;28;20502;-85
2023/04/24 03:26:26;;;;;;;5.75;3.50;;;9.30;99.90;;;;;;5073003;28;20056;-85
2023/04/24 03:28:52;;;;;;;6.00;3.97;;;9.30;99.90;;;;;;5074186;28;20381;-86
2023/04/24 03:31:18;;;;;;;6.30;3.85;;;9.20;99.90;;;;;;5072615;28;20547;-85
2023/04/24 03:33:44;;;;;;;11.95;4.10;;;9.20;99.90;;;;;;5073374;28;20059;-85
2023/04/24 03:36:10;;;;;;;4.90;4.00;;;9.20;99.90;;;;;;5073514;28;20044;-84
2023/04/24 03:38:35;;;;;;;5.35;3.90;;;9.30;99.90;;;;;;5073621;28;20049;-85
2023/04/24 03:41:01;;;;;;;8.20;4.35;;;9.20;99.90;;;;;;5072548;28;20543;-85
2023/04/24 03:43:27;;;;;;;6.53;4.18;;;9.20;99.90;;;;;;5072871;28;20058;-84
2023/04/24 03:45:53;;;;;;;5.85;3.95;;;9.40;99.90;;;;;;5073795;28;20044;-85
2023/04/24 03:48:18;;;;;;;5.32;4.18;;;10.20;99.90;;;;;;5056089;28;20075;-85
2023/04/24 03:50:44;;;;;;;5.68;4.22;;;9.10;99.90;;;;;;5073595;28;20066;-85
2023/04/24 03:53:12;;;;;;;6.93;4.35;;;9.10;99.90;;;;;;5072353;28;20048;-84
2023/04/24 03:55:38;;;;;;;7.88;4.28;;;9.20;99.90;;;;;;5072474;28;20040;-84
2023/04/24 03:58:03;;;;;;;8.00;4.30;;;9.10;99.90;;;;;;5056220;28;20048;-85
2023/04/24 04:00:31;;;;;;;5.40;3.83;;;9.20;99.90;;;;;;5072945;28;20040;-85
2023/04/24 04:02:57;;;;;;;5.05;3.83;;;9.10;99.90;;;;;;5073539;28;20048;-84
2023/04/24 04:05:22;;;;;;;5.30;4.00;;;9.60;99.90;;;;;;5072142;28;20105;-86
2023/04/24 04:07:48;;;;;;;4.90;3.55;;;9.10;99.90;;;;;;5073441;28;20059;-87
2023/04/24 04:10:14;;;;;;;7.40;4.07;;;9.10;99.90;;;;;;5072631;28;20044;-84
2023/04/24 04:12:39;;;;;;;4.85;3.50;;;9.10;99.90;;;;;;5072616;28;20473;-85
2023/04/24 04:15:07;;;;;;;6.47;4.13;;;9.10;99.90;;;;;;5072084;28;20086;-84
2023/04/24 04:17:32;;;;;;;5.68;4.20;;;9.10;99.90;;;;;;5072356;28;20041;-84
2023/04/24 04:19:58;;;;;;;6.35;4.13;;;9.40;99.90;;;;;;5072402;28;20044;-84
2023/04/24 04:22:24;;;;;;;6.60;4.47;;;9.10;99.90;;;;;;5072540;28;20389;-83
2023/04/24 04:24:50;;;;;;;6.90;4.05;;;9.10;99.90;;;;;;5072773;28;20048;-86
2023/04/24 04:27:18;;;;;;;7.70;4.47;;;9.20;99.90;;;;;;5055813;28;20139;-83
2023/04/24 04:29:44;;;;;;;6.05;4.63;;;9.10;99.90;;;;;;5072030;28;20440;-88
2023/04/24 04:32:10;;;;;;;6.25;4.60;;;9.10;99.90;;;;;;5073217;28;20136;-82
2023/04/24 04:34:37;;;;;;;6.63;4.57;;;9.10;99.90;;;;;;5070340;28;20079;-82
2023/04/24 04:37:03;;;;;;;9.02;5.40;;;9.20;99.90;;;;;;5071508;28;20048;-81
2023/04/24 04:39:30;;;;;;;6.78;5.25;;;9.00;99.90;;;;;;5072820;28;20400;-85
2023/04/24 04:41:56;;;;;;;;;;;9.70;99.90;;;;;;5072385;28;20098;-83
2023/04/24 04:44:21;;;;;;;6.15;4.22;;;9.40;99.90;;;;;;5072036;28;19924;-84
2023/04/24 04:46:47;;;;;;;7.25;4.97;;;9.10;99.90;;;;;;5072033;28;20103;-83
2023/04/24 04:49:16;;;;;;;9.35;4.95;;;9.10;99.90;;;;;;5072866;28;20076;-85
2023/04/24 04:51:42;;;;;;;6.47;4.90;;;9.40;99.90;;;;;;5073031;28;20055;-85
2023/04/24 04:54:07;;;;;;;6.22;4.75;;;9.10;99.90;;;;;;5073025;28;20048;-83
2023/04/24 04:56:33;;;;;;;6.10;4.47;;;9.10;99.90;;;;;;5072015;28;20389;-83
2023/04/24 04:58:59;;;;;;;6.07;4.55;;;9.00;99.90;;;;;;5055430;28;20472;-87
2023/04/24 05:01:27;;;;;;;6.70;4.95;;;9.00;99.90;;;;;;5055284;28;20048;-83
2023/04/24 05:03:53;;;;;;;7.63;5.30;;;9.80;99.90;;;;;;5071969;28;20369;-84
2023/04/24 05:06:18;;;;;;;6.93;4.53;;;8.70;99.90;;;;;;5075812;28;20040;-85
2023/04/24 05:08:44;;;;;;;7.43;4.57;;;9.00;99.90;;;;;;5076570;28;20544;-84
2023/04/24 05:11:10;;;;;;;6.15;4.53;;;8.90;99.90;;;;;;5075301;28;20047;-82
2023/04/24 05:13:35;;;;;;;6.38;4.13;;;9.10;99.90;;;;;;5076423;28;20090;-82
2023/04/24 05:16:01;;;;;;;8.10;4.53;;;9.10;99.90;;;;;;5074889;28;20044;-83
2023/04/24 05:18:26;;;;;;;7.22;4.63;;;9.10;99.90;;;;;;5075761;28;20047;-82
2023/04/24 05:20:52;;;;;;;8.07;4.70;;;9.40;99.90;;;;;;5075863;28;20050;-82
2023/04/24 05:23:17;;;;;;;6.70;5.07;;;9.10;99.90;;;;;;5075999;28;20098;-82
2023/04/24 05:25:43;;;;;;;5.97;4.07;;;9.10;99.90;;;;;;5075225;28;20040;-83
2023/04/24 05:28:09;;;;;;;5.22;4.03;;;9.80;99.90;;;;;;5058600;28;20464;-83
2023/04/24 05:30:34;;;;;;;4.68;3.47;;;8.90;99.90;;;;;;5041859;28;20045;-83
2023/04/24 05:33:00;;;;;;;5.18;3.35;;;9.20;99.90;;;;;;5075069;28;20417;-83
2023/04/24 05:35:29;;;;;;;5.43;3.60;;;9.20;99.90;;;;;;5076020;28;20246;-83
2023/04/24 05:37:54;;;;;;;4.05;3.22;;;9.10;99.90;;;;;;5074766;28;20059;-83
2023/04/24 05:40:20;;;;;;;4.03;3.08;;;9.70;99.90;;;;;;5076025;28;20041;-84
2023/04/24 05:42:46;;;;;;;3.63;2.75;;;9.20;99.90;;;;;;5075912;28;20052;-83
2023/04/24 05:45:16;;;;;;;3.88;2.95;;;9.20;99.90;;;;;;5074881;28;20037;-83
2023/04/24 05:47:43;;;;;;;3.03;2.58;;;9.20;99.90;;;;;;5076046;28;20092;-83
2023/04/24 05:50:09;;;;;;;3.90;2.67;;;9.00;99.90;;;;;;5075887;28;20062;-83
2023/04/24 05:52:35;;;;;;;3.95;2.80;;;9.20;99.90;;;;;;5075757;28;20060;-83
2023/04/24 05:55:00;;;;;;;4.90;2.95;;;9.20;99.90;;;;;;5075041;28;20045;-83
2023/04/24 05:57:26;;;;;;;6.68;3.05;;;9.20;99.90;;;;;;5057399;28;20041;-83
2023/04/24 05:59:52;;;;;;;4.30;2.75;;;9.20;99.90;;;;;;5074411;28;20544;-84
2023/04/24 06:02:18;;;;;;;6.82;3.15;;;9.20;99.90;;;;;;5074485;28;20495;-83
2023/04/24 06:04:44;;;;;;;4.63;3.10;;;9.30;99.90;;;;;;5074697;28;20060;-83
2023/04/24 06:07:11;;;;;;;4.25;2.95;;;9.30;99.90;;;;;;5075361;28;20040;-83
2023/04/24 06:09:36;;;;;;;3.72;2.63;;;9.20;99.90;;;;;;5074170;28;20119;-83
2023/04/24 06:12:02;;;;;;;2.83;1.90;;;9.20;99.90;;;;;;5075343;28;20080;-83
2023/04/24 06:14:28;;;;;;;3.13;2.13;;;9.20;99.90;;;;;;5074441;28;20051;-83
2023/04/24 06:16:54;;;;;;;3.22;2.10;;;9.10;99.90;;;;;;5074907;28;20044;-84
2023/04/24 06:19:19;;;;;;;2.75;2.13;;;9.10;99.90;;;;;;5073232;28;20389;-82
2023/04/24 06:21:45;;;;;;;3.05;2.33;;;9.10;99.90;;;;;;5071281;28;20052;-84
2023/04/24 06:24:15;;;;;;;2.33;1.88;;;9.10;99.90;;;;;;5057919;28;20051;-83
2023/04/24 06:26:41;;;;;;;4.13;2.20;;;8.70;99.90;;;;;;5057450;28;20076;-86
2023/04/24 06:29:07;;;;;;;2.60;2.05;;;9.00;99.90;;;;;;5057405;28;20083;-83
2023/04/24 06:31:36;;;;;;;2.30;1.70;;;9.00;99.90;;;;;;5073714;28;20125;-83
2023/04/24 06:34:03;;;;;;;2.50;1.92;;;9.40;99.90;;;;;;5075385;28;20092;-81
2023/04/24 06:36:28;;;;;;;2.75;1.92;;;9.00;99.90;;;;;;5074413;28;20036;-81
2023/04/24 06:38:54;;;;;;;2.95;2.10;;;9.00;99.90;;;;;;5074835;28;20542;-81
2023/04/24 06:41:20;;;;;;;2.08;1.73;;;8.90;99.90;;;;;;5075278;28;20048;-82
2023/04/24 06:43:46;;;;;;;3.58;2.38;;;9.50;99.90;;;;;;5074600;28;20052;-88
2023/04/24 06:46:11;;;;;;;3.28;2.20;;;8.90;99.90;;;;;;5078859;28;20049;-85
2023/04/24 06:48:37;;;;;;;5.22;2.40;;;9.20;99.90;;;;;;5057647;28;20063;-85
2023/04/24 06:51:03;;;;;;;5.47;2.17;;;9.20;99.90;;;;;;5057721;28;20470;-80
2023/04/24 06:53:28;;;;;;;3.92;2.45;;;9.00;99.90;;;;;;5074233;28;20045;-82
2023/04/24 06:55:54;;;;;;;4.78;2.65;;;9.30;99.90;;;;;;5073196;28;20037;-84
2023/04/24 06:58:20;;;;;;;6.10;2.85;;;9.00;99.90;;;;;;5074707;28;20033;-85
2023/04/24 07:00:46;;;;;;;3.17;2.38;;;9.80;99.90;;;;;;5056648;28;20145;-81
2023/04/24 07:03:11;;;;;;;3.45;2.65;;;9.00;99.90;;;;;;5073416;28;20150;-81
2023/04/24 07:05:38;;;;;;;3.47;2.40;;;8.30;99.90;;;;;;5072874;28;20040;-81
2023/04/24 07:08:03;;;;;;;3.28;2.22;;;9.00;99.90;;;;;;5055106;28;20415;-81
2023/04/24 07:10:30;;;;;;;3.63;1.92;;;9.00;99.90;;;;;;5073113;28;20037;-81
2023/04/24 07:12:56;;;;;;;3.30;2.00;;;9.50;99.90;;;;;;5055347;28;20454;-81
2023/04/24 07:15:23;;;;;;;3.08;2.20;;;9.00;99.90;;;;;;5071607;28;20040;-81
2023/04/24 07:17:49;;;;;;;3.50;2.30;;;9.90;99.90;;;;;;5072942;28;20082;-81
2023/04/24 07:20:15;;;;;;;2.90;2.07;;;9.00;99.90;;;;;;5073043;28;20051;-81
2023/04/24 07:22:41;;;;;;;2.70;1.95;;;9.00;99.90;;;;;;5073556;28;20287;-81
2023/04/24 07:25:08;;;;;;;4.20;2.08;;;9.00;99.90;;;;;;5073857;28;20063;-81
2023/04/24 07:27:34;;;;;;;3.15;2.10;;;9.10;99.90;;;;;;5073303;28;20055;-81
2023/04/24 07:30:00;;;;;;;2.95;2.00;;;9.70;99.90;;;;;;5073762;28;20090;-80
2023/04/24 07:32:26;;;;;;;3.22;1.92;;;9.00;99.90;;;;;;5072387;28;20048;-79
2023/04/24 07:34:51;;;;;;;3.75;1.80;;;8.80;99.90;;;;;;5073534;28;20037;-80
2023/04/24 07:37:17;;;;;;;2.10;1.33;;;9.10;99.90;;;;;;5073424;28;20449;-80
2023/04/24 07:39:43;;;;;;;2.13;1.52;;;9.60;99.90;;;;;;5073746;28;20065;-80
2023/04/24 07:42:08;;;;;;;3.08;1.70;;;9.50;99.90;;;;;;5072632;28;20051;-86
2023/04/24 07:44:35;;;;;;;3.45;1.40;;;8.50;99.90;;;;;;5046399;28;20044;-79
2023/04/24 07:47:01;;;;;;;2.40;1.40;;;9.30;99.90;;;;;;5074746;28;20051;-81
2023/04/24 07:49:27;;;;;;;2.60;1.60;;;9.30;99.90;;;;;;5077356;28;20060;-82
2023/04/24 07:51:53;;;;;;;2.05;1.60;;;9.40;99.90;;;;;;5072090;28;20044;-87
2023/04/24 07:54:18;;;;;;;3.28;2.10;;;9.40;99.90;;;;;;5072126;28;20178;-81
2023/04/24 07:56:44;;;;;;;3.80;2.38;;;9.50;99.90;;;;;;5072009;28;20037;-82
2023/04/24 07:59:10;;;;;;;3.22;2.20;;;9.50;99.90;;;;;;5072542;28;20041;-84
2023/04/24 08:01:36;;;;;;;5.30;2.40;;;9.60;99.90;;;;;;5073127;28;20075;-81
2023/04/24 08:04:02;;;;;;;4.82;2.60;;;9.60;99.90;;;;;;5073171;28;20083;-78
2023/04/24 08:06:30;;;;;;;5.55;2.92;;;10.00;99.90;;;;;;5073212;28;20087;-79
2023/04/24 08:08:56;;;;;;;5.45;2.55;;;9.70;99.90;;;;;;5073320;28;20044;-83
2023/04/24 08:11:22;;;;;;;3.60;2.63;;;9.70;99.90;;;;;;5074386;28;20056;-81
2023/04/24 08:13:47;;;;;;;3.13;2.33;;;9.80;99.90;;;;;;5073851;28;20059;-78
2023/04/24 08:16:13;;;;;;;3.65;2.58;;;9.70;99.90;;;;;;5072659;28;20498;-78
2023/04/24 08:18:39;;;;;;;2.78;2.28;;;9.70;99.90;;;;;;5073451;28;20045;-84
2023/04/24 08:21:04;;;;;;;2.35;1.85;;;10.50;99.90;;;;;;5073009;28;20051;-79
2023/04/24 08:23:30;;;;;;;3.22;2.40;;;9.80;99.90;;;;;;5072937;28;20514;-85
2023/04/24 08:25:57;;;;;;;3.58;2.30;;;9.80;99.90;;;;;;5071796;28;20049;-79
2023/04/24 08:28:22;;;;;;;3.90;2.10;;;9.50;99.90;;;;;;5072808;28;20384;-82
2023/04/24 08:30:48;;;;;;;3.08;2.17;;;10.20;99.90;;;;;;5071842;28;20052;-79
2023/04/24 08:33:14;;;;;;;3.72;2.60;;;9.80;99.90;;;;;;5073069;28;20045;-81
2023/04/24 08:35:40;;;;;;;3.08;2.10;;;10.40;99.90;;;;;;5072902;28;20423;-79
2023/04/24 08:38:06;;;;;;;3.45;1.85;;;10.30;99.90;;;;;;5073349;28;20169;-80
2023/04/24 08:40:34;;;;;;;4.43;1.90;;;9.30;99.90;;;;;;5075138;28;20123;-82
2023/04/24 08:43:00;;;;;;;3.47;1.42;;;9.70;99.90;;;;;;5075668;28;20052;-79
2023/04/24 08:45:26;;;;;;;2.38;1.77;;;9.50;99.90;;;;;;5076556;28;20588;-87
2023/04/24 08:47:56;;;;;;;4.53;1.60;;;9.10;99.90;;;;;;5077028;28;20075;-89
2023/04/24 08:50:22;;;;;;;2.70;1.70;;;9.70;99.90;;;;;;5075702;28;20054;-89
2023/04/24 08:52:50;;;;;;;3.05;1.70;;;9.70;99.90;;;;;;5059178;28;20476;-84
2023/04/24 08:55:18;;;;;;;1.98;1.70;;;9.70;99.90;;;;;;5076528;28;20388;-89
2023/04/24 08:57:45;;;;;;;5.97;2.00;;;9.70;99.90;;;;;;5060909;28;20048;-90
2023/04/24 09:00:12;;;;;;;3.88;1.52;;;9.70;99.90;;;;;;5062550;28;20048;-87
2023/04/24 09:02:42;;;;;;;3.58;2.30;;;9.70;99.90;;;;;;5077769;28;20086;-91
2023/04/24 09:05:09;;;;;;;5.45;2.70;;;9.60;99.90;;;;;;5077807;28;20036;-87
2023/04/24 09:07:36;;;;;;;;;;;10.50;99.90;;;;;;5076425;28;20036;-82
2023/04/24 09:10:02;;;;;;;8.35;3.92;;;9.10;99.90;;;;;;5076418;28;20304;-81
2023/04/24 09:12:28;;;;;;;7.32;3.97;;;9.60;99.90;;;;;;5075820;28;20051;-80
2023/04/24 09:14:55;;;;;;;6.90;4.18;;;9.50;99.90;;;;;;5074750;28;20044;-80
2023/04/24 09:17:22;;;;;;;11.55;4.70;;;9.00;99.90;;;;;;5074990;28;20040;-83
2023/04/24 09:19:48;;;;;;;11.30;5.20;;;9.60;99.90;;;;;;5074993;28;20052;-82
2023/04/24 09:22:15;;;;;;;10.18;4.85;;;9.30;99.90;;;;;;5076141;28;20069;-85
2023/04/24 09:24:41;;;;;;;9.00;4.78;;;9.60;99.90;;;;;;5074859;28;20472;-82
2023/04/24 09:27:07;;;;;;;12.27;5.82;;;10.00;99.90;;;;;;5075912;28;20044;-84
2023/04/24 09:29:32;;;;;;;12.07;5.67;;;9.60;99.90;;;;;;5075065;28;20089;-77
2023/04/24 09:31:58;;;;;;;9.63;5.90;;;10.20;99.90;;;;;;5076394;28;20127;-78
2023/04/24 09:34:26;;;;;;;10.10;5.50;;;9.70;99.90;;;;;;5075655;28;20036;-80
2023/04/24 09:36:54;;;;;;;10.35;5.38;;;9.60;99.90;;;;;;5075599;28;20036;-78
2023/04/24 09:39:20;;;;;;;11.25;5.93;;;9.60;99.90;;;;;;5074601;28;20064;-79
2023/04/24 09:41:52;;;;;;;13.75;6.22;;;9.60;99.90;;;;;;5075394;28;20294;-79
2023/04/24 09:44:22;;;;;;;11.98;7.13;;;9.50;99.90;;;;;;5075708;28;20384;-83
2023/04/24 09:46:59;;;;;;;16.13;7.85;;;9.40;99.90;;;;;;5074354;28;20369;-85
2023/04/24 09:49:28;;;;;;;15.50;8.70;;;9.40;99.90;;;;;;5075559;28;20056;-90
2023/04/24 09:52:05;;;;;;;20.63;9.30;;;9.40;99.90;;;;;;5074243;28;20373;-85
2023/04/24 09:54:31;;;;;;;16.13;8.80;;;9.30;99.90;;;;;;5074128;28;20032;-83
2023/04/24 09:56:56;;;;;;;17.30;8.68;;;9.30;99.90;;;;;;5081632;28;20309;-82
2023/04/24 09:59:22;;;;;;;15.27;8.30;;;9.40;99.90;;;;;;5075659;28;20119;-83
2023/04/24 10:01:49;;;;;;;19.05;9.77;;;9.20;99.90;;;;;;5074176;28;20040;-79
2023/04/24 10:04:21;;;;;;;14.77;8.57;;;9.20;99.90;;;;;;5076010;28;20124;-82
2023/04/24 10:06:48;;;;;;;16.30;8.45;;;9.20;99.90;;;;;;5075118;28;20496;-82
2023/04/24 10:09:18;;;;;;;19.13;9.90;;;9.20;99.90;;;;;;5074939;28;20048;-81
2023/04/24 10:11:49;;;;;;;14.05;8.43;;;8.70;99.90;;;;;;5075592;28;20040;-81
2023/04/24 10:14:23;;;;;;;15.57;8.25;;;9.20;99.90;;;;;;5074985;28;20044;-80
2023/04/24 10:16:52;;;;;;;12.55;7.88;;;9.20;99.90;;;;;;5074983;28;20040;-80
2023/04/24 10:19:18;;;;;;;15.80;8.02;;;9.10;99.90;;;;;;5074150;28;20052;-82
2023/04/24 10:21:46;;;;;;;11.65;6.43;;;8.90;99.90;;;;;;5074118;28;20093;-82
2023/04/24 10:24:16;;;;;;;13.23;7.07;;;9.20;99.90;;;;;;5074117;28;20053;-82
2023/04/24 10:26:43;;;;;;;13.43;7.43;;;9.20;99.90;;;;;;5075457;28;20041;-82
2023/04/24 10:29:13;;;;;;;15.32;6.63;;;9.90;99.90;;;;;;5074971;28;20040;-81
2023/04/24 10:31:39;;;;;;;12.38;7.13;;;9.30;99.90;;;;;;5073779;28;20041;-79
2023/04/24 10:34:09;;;;;;;10.13;5.57;;;9.90;99.90;;;;;;5074496;28;20045;-85
2023/04/24 10:36:40;;;;;;;10.80;6.35;;;9.10;99.90;;;;;;5074852;28;20056;-79
2023/04/24 10:39:11;;;;;;;13.15;6.72;;;9.10;99.90;;;;;;5073662;28;20098;-81
2023/04/24 10:41:37;;;;;;;10.77;6.90;;;9.20;99.90;;;;;;5074462;28;20048;-86
2023/04/24 10:44:10;;;;;;;13.68;7.00;;;9.20;99.90;;;;;;5056784;28;20399;-87
2023/04/24 10:46:36;;;;;;;12.88;6.93;;;9.30;99.90;;;;;;5073946;28;20111;-84
2023/04/24 10:49:06;;;;;;;8.98;5.75;;;9.40;99.90;;;;;;5073766;28;20052;-79
2023/04/24 10:51:52;;;;;;;14.00;6.63;;;9.40;99.90;;;;;;5073186;28;20114;-80
2023/04/24 10:54:40;;;;;;;8.48;4.80;;;9.50;99.90;;;;;;5073491;28;20127;-87
2023/04/24 10:57:24;;;;;;;13.40;5.88;;;9.40;99.90;;;;;;5073003;28;20484;-82
2023/04/24 11:00:30;;;;;;;12.07;5.72;;;9.70;99.90;;;;;;5074254;28;20127;-82
2023/04/24 11:02:57;;;;;;;17.83;6.28;;;9.40;99.90;;;;;;5031121;28;20056;-81
2023/04/24 11:05:42;;;;;;;;;;;9.40;99.90;;;;;;5032343;28;20120;-82
2023/04/24 11:08:33;;;;;;;7.88;3.70;;;10.10;99.90;;;;;;5049540;28;19927;-81
2023/04/24 11:11:02;;;;;;;6.82;3.50;;;9.10;99.90;;;;;;5073034;28;20059;-81
2023/04/24 11:13:56;;;;;;;7.53;3.20;;;9.10;99.90;;;;;;5072999;28;20044;-80
2023/04/24 11:16:25;;;;;;;10.73;3.80;;;9.00;99.90;;;;;;5072715;28;20052;-83
2023/04/24 11:19:03;;;;;;;5.13;2.65;;;9.00;99.90;;;;;;5073797;28;20115;-80
2023/04/24 11:21:42;;;;;;;8.00;3.00;;;9.00;99.90;;;;;;5056392;28;20083;-81
2023/04/24 11:24:25;;;;;;;7.57;3.50;;;8.90;99.90;;;;;;5073206;28;20105;-84
2023/04/24 11:26:55;;;;;;;11.48;3.53;;;9.00;99.90;;;;;;5072661;28;20040;-87
2023/04/24 11:29:21;;;;;;;8.65;3.20;;;9.00;99.90;;;;;;5072714;28;20040;-87
2023/04/24 11:31:51;;;;;;;9.07;2.88;;;9.10;99.90;;;;;;5072593;28;20052;-86
2023/04/24 11:34:17;;;;;;;6.00;2.72;;;9.10;99.90;;;;;;5073837;28;20055;-86
2023/04/24 11:36:44;;;;;;;6.82;2.97;;;9.30;99.90;;;;;;5055842;28;20544;-86
2023/04/24 11:39:11;;;;;;;8.50;3.03;;;9.80;99.90;;;;;;5056150;28;20059;-85
2023/04/24 11:41:37;;;;;;;6.70;2.90;;;9.30;99.90;;;;;;5072682;28;20040;-83
2023/04/24 11:44:05;;;;;;;6.93;3.20;;;9.20;99.90;;;;;;5072399;28;20043;-85
2023/04/24 11:46:31;;;;;;;6.82;2.60;;;10.20;99.90;;;;;;5073756;28;20051;-84
2023/04/24 11:48:58;;;;;;;5.20;2.53;;;9.20;99.90;;;;;;5055981;28;20048;-86
2023/04/24 11:51:26;;;;;;;4.85;2.42;;;9.10;99.90;;;;;;5072113;28;20055;-86
2023/04/24 11:53:55;;;;;;;9.35;2.60;;;9.30;99.90;;;;;;5055635;28;20420;-84
2023/04/24 11:56:22;;;;;;;13.73;2.75;;;8.90;99.90;;;;;;5072462;28;20102;-87
2023/04/24 11:58:48;;;;;;;10.73;2.83;;;9.20;99.90;;;;;;5055703;28;20048;-85
2023/04/24 12:01:14;;;;;;;5.43;2.30;;;9.20;99.90;;;;;;5073711;28;20063;-84
2023/04/24 12:03:43;;;;;;;9.43;2.40;;;9.20;99.90;;;;;;5072533;28;20439;-84
2023/04/24 12:06:11;;;;;;;8.27;2.10;;;9.30;99.90;;;;;;5072120;28;20036;-86
2023/04/24 12:08:37;;;;;;;4.43;2.10;;;9.40;99.90;;;;;;5072457;28;20048;-85
2023/04/24 12:11:06;;;;;;;4.72;2.00;;;9.50;99.90;;;;;;5073685;28;20044;-84
2023/04/24 12:13:36;;;;;;;3.95;2.00;;;9.70;99.90;;;;;;5072418;28;20041;-86
2023/04/24 12:16:04;;;;;;;8.80;2.50;;;9.80;99.90;;;;;;5076922;28;20080;-87
2023/04/24 12:18:30;;;;;;;10.57;2.80;;;10.00;99.90;;;;;;5060086;28;20056;-85
2023/04/24 12:21:15;;;;;;;3.92;2.20;;;10.30;99.90;;;;;;5078127;28;20087;-86
2023/04/24 12:23:44;;;;;;;6.72;2.33;;;10.50;99.90;;;;;;5060461;28;20374;-87
2023/04/24 12:26:10;;;;;;;7.20;2.38;;;10.10;99.90;;;;;;5076439;28;20412;-86
2023/04/24 12:28:37;;;;;;;11.25;2.75;;;11.30;99.90;;;;;;5078129;28;20044;-86
2023/04/24 12:31:03;;;;;;;9.15;2.28;;;9.00;99.90;;;;;;5060301;28;20091;-86
2023/04/24 12:33:33;;;;;;;7.85;2.55;;;10.00;99.90;;;;;;5076779;28;20040;-86
2023/04/24 12:35:59;;;;;;;5.07;2.53;;;9.30;99.90;;;;;;5076044;28;20040;-82
2023/04/24 12:38:39;;;;;;;10.75;2.80;;;10.00;99.90;;;;;;5076486;28;20043;-83
2023/04/24 12:41:10;;;;;;;6.25;2.55;;;9.90;99.90;;;;;;5059272;28;20044;-79
2023/04/24 12:43:36;;;;;;;5.50;2.67;;;9.80;99.90;;;;;;5077214;28;20102;-79
2023/04/24 12:46:02;;;;;;;5.82;2.47;;;9.70;99.90;;;;;;5075664;28;20052;-81
2023/04/24 12:48:29;;;;;;;10.13;3.38;;;9.70;99.90;;;;;;5076945;28;20097;-82
2023/04/24 12:50:56;;;;;;;9.18;4.00;;;9.60;99.90;;;;;;5076499;28;20106;-82
2023/04/24 12:53:22;;;;;;;12.20;4.63;;;10.60;99.90;;;;;;5076878;28;20070;-84
2023/04/24 12:55:52;;;;;;;15.35;5.75;;;9.60;99.90;;;;;;5075652;28;20635;-83